Date,TemperatureHighF,TemperatureAvgF,TemperatureLowF,DewpointHighF,DewpointAvgF,DewpointLowF,HumidityHigh,HumidityAvg,HumidityLow,PressureMaxIn,PressureMinIn,WindSpeedMaxMPH,WindSpeedAvgMPH,GustSpeedMaxMPH,PrecipitationSumIn
2013-1-1,47.5,37.3,28.8,33.9,30.3,26.8,96,78,52,30.27,30.21,3,0,4,0.00
2013-1-2,53.3,38.3,29.6,35.0,28.8,23.5,91,71,37,30.27,30.16,1,0,4,0.00
2013-1-3,54.9,39.1,30.7,36.3,32.6,28.7,93,79,46,30.27,30.18,0,0,1,0.00
2013-1-4,54.9,41.4,33.2,37.7,32.2,26.0,90,72,40,30.30,30.20,0,0,3,0.00
2013-1-5,52.4,41.6,34.7,39.4,35.1,30.6,90,79,43,30.26,30.08,0,0,5,0.00
2013-1-6,45.9,40.5,35.4,40.9,38.3,34.3,97,92,77,30.16,30.08,4,0,4,0.04
2013-1-7,52.5,41.7,35.2,41.1,36.3,31.4,94,82,55,30.23,30.13,2,0,5,0.00
2013-1-8,55.0,42.5,34.3,45.3,39.5,33.5,98,90,69,30.23,30.14,0,0,5,0.00
2013-1-9,50.2,42.1,34.1,42.3,38.9,33.0,97,89,65,30.18,29.87,10,0,10,0.60
2013-1-10,38.8,31.4,27.0,32.9,29.5,26.3,98,93,73,30.15,29.97,2,0,8,0.01
2013-1-11,40.9,30.0,24.4,31.1,25.4,-99.9,97,86,55,30.24,30.15,1,-6,6,0.00
2013-1-12,40.9,31.6,22.1,24.5,20.5,13.3,89,65,35,30.24,30.15,7,0,7,0.00
2013-1-13,41.3,32.3,21.2,22.4,14.5,4.3,91,51,23,30.27,30.18,8,1,8,0.00
2013-1-14,42.8,29.9,25.7,12.7,10.2,6.2,55,44,25,30.40,30.23,1,0,5,0.00
2013-1-15,46.7,34.2,26.7,31.5,26.3,21.7,89,74,49,30.51,30.40,1,0,4,0.00
2013-1-16,32.9,32.1,31.6,29.0,27.4,24.8,90,83,72,30.46,30.43,0,0,0,0.00
2013-1-17,62.2,45.1,34.4,35.3,27.2,18.2,74,52,27,30.30,30.19,0,0,4,0.00
2013-1-18,64.8,47.2,37.7,33.5,27.0,21.2,69,48,20,30.25,30.16,1,0,5,0.00
2013-1-19,64.6,49.9,37.8,36.9,28.1,19.9,65,45,23,30.27,30.17,2,0,2,0.00
2013-1-20,65.1,47.2,38.6,35.9,30.8,24.3,80,56,27,30.24,30.12,0,0,4,0.00
2013-1-21,63.8,47.7,37.1,35.3,29.8,22.7,81,52,25,30.19,30.12,1,0,5,0.00
2013-1-22,67.2,49.8,38.1,32.9,27.4,19.3,67,45,18,30.16,30.03,0,0,5,0.00
2013-1-23,61.8,51.2,46.2,46.5,33.7,21.5,97,58,26,30.08,29.98,2,0,4,0.09
2013-1-24,57.2,51.6,47.0,50.5,47.9,45.3,96,88,74,30.16,30.04,0,0,3,0.01
2013-1-25,58.3,52.4,49.9,53.5,49.9,-99.9,98,93,81,30.16,30.00,2,-6,8,0.06
2013-1-26,52.4,46.3,38.8,49.1,43.7,36.8,97,91,77,30.00,29.88,6,0,6,0.00
2013-1-27,45.6,40.3,34.7,38.5,36.5,33.9,98,87,67,30.11,29.97,7,1,7,0.17
2013-1-28,48.8,38.2,28.7,34.9,31.1,27.4,95,77,53,30.26,30.13,3,0,10,0.00
2013-1-29,52.8,43.2,32.7,39.4,34.8,30.4,92,74,50,30.33,30.25,5,0,8,0.00
2013-1-30,57.2,46.8,39.9,43.0,39.2,35.0,89,76,57,30.33,30.25,4,0,5,0.00
2013-1-31,61.7,49.3,37.2,45.3,40.3,34.7,94,74,43,30.30,30.19,4,0,4,0.00